Terminal Aerodrome Forecast
Issued by NWS Pocatello, ID

Home | Current Version | Previous Version | Text Only | Print | Product List | Glossary On
Versions: 1 2 3 4 5 6 7 8 9 10 11 12 13 14 15 16
000
FTUS45 KPIH 200139 AAB
TAFBYI
TAF AMD
KBYI 200139Z 2002/2024 VRB06KT P6SM -SHRA SCT040 BKN080
     FM200800 19009KT P6SM VCSH SCT025 OVC080
      TEMPO 2008/2011 6SM -SHRASN BR SCT010 OVC030
     FM201500 17013G23KT P6SM -SHRA SCT020 OVC040
     FM201900 19016G26KT 6SM -SHRA BR BKN010 OVC030=

USA.gov is the U.S. government's official web portal to all federal, state and local government web resources and services.